createdAt,value
2018-07-19T00:00:12.538Z,15.37
2018-07-19T00:02:40.092Z,12.07
2018-07-19T00:05:07.501Z,12.77
2018-07-19T00:07:35.103Z,14.00
2018-07-19T00:10:02.476Z,10.83
2018-07-19T00:12:29.906Z,12.63
2018-07-19T00:14:57.438Z,10.67
2018-07-19T00:17:24.741Z,12.33
2018-07-19T00:19:52.270Z,11.07
2018-07-19T00:22:19.731Z,12.03
2018-07-19T00:24:47.260Z,13.47
2018-07-19T00:27:14.720Z,13.30
2018-07-19T00:29:42.314Z,15.07
2018-07-19T00:32:09.757Z,15.37
2018-07-19T00:34:37.185Z,15.23
2018-07-19T00:37:04.711Z,16.77
2018-07-19T00:39:32.286Z,16.30
2018-07-19T00:41:59.553Z,20.10
2018-07-19T00:44:26.841Z,18.23
2018-07-19T00:46:54.483Z,18.63
2018-07-19T00:49:21.787Z,17.70
2018-07-19T00:51:49.225Z,18.73
2018-07-19T00:54:16.878Z,18.57
2018-07-19T00:56:44.335Z,17.10
2018-07-19T00:59:11.579Z,18.37
2018-07-19T01:01:38.820Z,17.47
2018-07-19T01:04:06.089Z,17.73
2018-07-19T01:06:33.825Z,18.63
2018-07-19T01:09:01.098Z,18.67
2018-07-19T01:11:29.315Z,17.40
2018-07-19T01:13:56.664Z,20.90
2018-07-19T01:16:24.085Z,19.33
2018-07-19T01:18:51.457Z,21.67
2018-07-19T01:21:18.849Z,19.97
2018-07-19T01:23:46.130Z,19.80
2018-07-19T01:26:13.679Z,22.17
2018-07-19T01:28:40.967Z,22.00
2018-07-19T01:31:08.347Z,22.93
2018-07-19T01:33:35.673Z,22.30
2018-07-19T01:36:02.930Z,23.23
2018-07-19T01:38:30.360Z,25.33
2018-07-19T01:40:58.723Z,26.20
2018-07-19T01:43:26.554Z,24.00
2018-07-19T01:45:54.161Z,27.40
2018-07-19T01:48:21.629Z,27.53
2018-07-19T01:50:48.897Z,25.47
2018-07-19T01:53:16.421Z,28.17
2018-07-19T01:55:43.912Z,27.30
2018-07-19T01:58:11.202Z,25.27
2018-07-19T02:00:38.583Z,24.87
2018-07-19T02:03:05.947Z,25.20
2018-07-19T02:05:33.611Z,29.80
2018-07-19T02:08:01.040Z,30.50
2018-07-19T02:10:28.568Z,27.17
2018-07-19T02:12:56.223Z,30.80
2018-07-19T02:15:23.514Z,34.50
2018-07-19T02:17:50.956Z,31.00
2018-07-19T02:20:18.207Z,30.80
2018-07-19T02:22:46.731Z,32.13
2018-07-19T02:25:14.249Z,34.13
2018-07-19T02:27:41.504Z,32.20
2018-07-19T02:30:08.750Z,32.87
2018-07-19T02:32:36.003Z,29.70
2018-07-19T02:35:03.683Z,33.17
2018-07-19T02:37:31.092Z,32.67
2018-07-19T02:39:58.838Z,31.67
2018-07-19T02:42:26.094Z,33.63
2018-07-19T02:44:53.398Z,34.80
2018-07-19T02:47:20.668Z,35.67
2018-07-19T02:49:47.975Z,35.83
2018-07-19T02:52:15.232Z,34.83
2018-07-19T02:54:43.284Z,32.70
2018-07-19T02:57:10.532Z,40.73
2018-07-19T02:59:38.101Z,38.47
2018-07-19T03:02:07.533Z,35.23
2018-07-19T03:04:34.849Z,38.10
2018-07-19T03:07:02.221Z,35.23
2018-07-19T03:09:29.673Z,37.57
2018-07-19T03:11:57.107Z,37.53
2018-07-19T03:14:24.877Z,35.60
2018-07-19T03:16:52.572Z,41.57
2018-07-19T03:19:21.212Z,36.70
2018-07-19T03:21:49.227Z,36.57
2018-07-19T03:24:16.954Z,41.47
2018-07-19T03:26:44.232Z,41.30
2018-07-19T03:29:12.112Z,47.57
2018-07-19T03:31:39.362Z,45.33
2018-07-19T03:34:06.708Z,41.73
2018-07-19T03:36:34.049Z,42.20
2018-07-19T03:39:01.488Z,41.27
2018-07-19T03:41:29.259Z,45.97
2018-07-19T03:43:56.629Z,41.77
2018-07-19T03:46:24.218Z,44.17
2018-07-19T03:48:51.642Z,43.87
2018-07-19T03:51:18.945Z,42.37
2018-07-19T03:53:46.718Z,45.93
2018-07-19T03:56:15.028Z,47.70
2018-07-19T03:58:42.407Z,45.40
2018-07-19T04:01:09.987Z,41.10
2018-07-19T04:03:37.372Z,47.53
2018-07-19T04:06:11.660Z,44.43
2018-07-19T04:08:38.965Z,41.63
2018-07-19T04:11:06.416Z,43.37
2018-07-19T04:13:33.685Z,39.50
2018-07-19T04:16:01.213Z,33.97
2018-07-19T04:18:28.702Z,34.53
2018-07-19T04:20:55.966Z,26.77
2018-07-19T04:23:23.316Z,35.90
2018-07-19T04:25:50.670Z,37.67
2018-07-19T04:28:18.507Z,41.17
2018-07-19T04:30:46.258Z,33.93
2018-07-19T04:33:14.181Z,35.10
2018-07-19T04:35:41.453Z,37.27
2018-07-19T04:38:08.792Z,41.77
2018-07-19T04:40:36.093Z,38.20
2018-07-19T04:43:03.418Z,36.23
2018-07-19T04:45:30.885Z,36.57
2018-07-19T04:47:58.442Z,32.03
2018-07-19T04:50:25.938Z,40.93
2018-07-19T04:52:53.242Z,42.40
2018-07-19T04:55:20.559Z,39.70
2018-07-19T04:57:47.858Z,30.83
2018-07-19T05:00:15.266Z,40.20
2018-07-19T05:02:42.507Z,38.67
2018-07-19T05:05:09.941Z,39.10
2018-07-19T05:07:37.352Z,41.43
2018-07-19T05:10:04.881Z,39.47
2018-07-19T05:12:32.428Z,40.17
2018-07-19T05:14:59.768Z,38.00
2018-07-19T05:17:27.019Z,32.37
2018-07-19T05:19:54.293Z,34.30
2018-07-19T05:22:21.554Z,29.03
2018-07-19T05:24:48.874Z,32.67
2018-07-19T05:27:16.394Z,24.70
2018-07-19T05:29:44.104Z,36.57
2018-07-19T05:32:11.763Z,32.73
2018-07-19T05:34:39.291Z,30.03
2018-07-19T05:37:07.065Z,39.33
2018-07-19T05:39:34.713Z,34.63
2018-07-19T05:42:02.627Z,27.63
2018-07-19T05:44:30.914Z,36.97
2018-07-19T05:46:58.497Z,38.53
2018-07-19T05:49:26.133Z,29.93
2018-07-19T05:51:53.804Z,28.17
2018-07-19T05:54:21.912Z,24.97
2018-07-19T05:56:49.513Z,21.73
2018-07-19T05:59:17.113Z,24.43
2018-07-19T06:01:44.566Z,22.53
2018-07-19T06:04:11.993Z,22.50
2018-07-19T06:06:39.642Z,18.57
2018-07-19T06:09:08.068Z,17.90
2018-07-19T06:11:35.645Z,15.07
2018-07-19T06:14:04.650Z,13.87
2018-07-19T06:16:31.935Z,14.47
2018-07-19T06:18:59.448Z,13.77
2018-07-19T06:21:26.793Z,11.70
2018-07-19T06:23:54.068Z,12.07
2018-07-19T06:26:21.443Z,13.80
2018-07-19T06:28:48.858Z,12.80
2018-07-19T06:31:16.326Z,10.53
2018-07-19T06:33:43.616Z,14.67
2018-07-19T06:36:10.938Z,12.67
2018-07-19T06:38:38.997Z,13.27
2018-07-19T06:41:06.371Z,12.23
2018-07-19T06:43:33.642Z,12.13
2018-07-19T06:46:01.389Z,11.47
2018-07-19T06:48:28.759Z,11.63
2018-07-19T06:50:56.104Z,17.83
2018-07-19T06:53:23.521Z,10.33
2018-07-19T06:55:50.842Z,12.93
2018-07-19T06:58:18.222Z,9.17
2018-07-19T07:00:45.504Z,8.37
2018-07-19T07:03:13.203Z,9.30
2018-07-19T07:05:40.641Z,10.10
2018-07-19T07:08:07.971Z,7.93
2018-07-19T07:10:35.348Z,12.30
2018-07-19T07:13:03.036Z,9.87
2018-07-19T07:15:30.568Z,11.67
2018-07-19T07:17:58.057Z,13.77
2018-07-19T07:20:25.583Z,10.87
2018-07-19T07:22:53.010Z,9.33
2018-07-19T07:25:20.325Z,10.30
2018-07-19T07:27:47.749Z,7.30
2018-07-19T07:30:15.119Z,8.73
2018-07-19T07:32:42.758Z,7.70
2018-07-19T07:35:10.432Z,10.13
2018-07-19T07:37:37.791Z,11.37
2018-07-19T07:40:05.340Z,7.00
2018-07-19T07:42:32.631Z,7.30
2018-07-19T07:44:59.980Z,7.80
2018-07-19T07:47:27.329Z,6.10
2018-07-19T07:49:54.621Z,5.47
2018-07-19T07:52:22.124Z,4.90
2018-07-19T07:54:49.411Z,6.20
2018-07-19T07:57:16.702Z,8.27
2018-07-19T07:59:44.703Z,5.57
2018-07-19T08:02:12.185Z,10.30
2018-07-19T08:04:40.248Z,7.03
2018-07-19T08:07:07.699Z,5.50
2018-07-19T08:09:35.070Z,7.67
2018-07-19T08:12:02.311Z,5.40
2018-07-19T08:14:29.658Z,7.90
2018-07-19T08:16:56.994Z,5.57
2018-07-19T08:19:24.269Z,6.30
2018-07-19T08:21:51.765Z,6.60
2018-07-19T08:24:19.236Z,4.85
2018-07-19T08:26:46.631Z,4.03
2018-07-19T08:29:13.932Z,4.10
2018-07-19T08:31:41.579Z,3.87
2018-07-19T08:34:09.081Z,5.55
2018-07-19T08:36:36.409Z,5.03
2018-07-19T08:39:06.927Z,5.47
2018-07-19T08:41:34.505Z,4.63
2018-07-19T08:44:02.005Z,5.93
2018-07-19T08:46:29.286Z,4.30
2018-07-19T08:48:57.618Z,5.57
2018-07-19T08:51:24.999Z,5.43
2018-07-19T08:53:52.366Z,4.33
2018-07-19T08:56:19.870Z,6.67
2018-07-19T08:58:47.231Z,3.73
2018-07-19T09:01:14.474Z,4.47
2018-07-19T09:03:42.476Z,5.30
2018-07-19T09:06:09.930Z,4.07
2018-07-19T09:08:37.377Z,4.17
2018-07-19T09:11:04.762Z,5.50
2018-07-19T09:13:32.882Z,4.03
2018-07-19T09:16:00.219Z,5.20
2018-07-19T09:18:27.640Z,4.33
2018-07-19T09:20:54.949Z,2.90
2018-07-19T09:23:22.373Z,2.83
2018-07-19T09:25:49.678Z,3.90
2018-07-19T09:28:17.031Z,3.50
2018-07-19T09:30:44.416Z,4.10
2018-07-19T09:33:11.797Z,3.60
2018-07-19T09:35:39.694Z,5.53
2018-07-19T09:38:07.223Z,3.63
2018-07-19T09:40:34.682Z,4.27
2018-07-19T09:43:02.923Z,3.77
2018-07-19T09:45:30.434Z,3.70
2018-07-19T09:47:57.940Z,3.40
2018-07-19T09:50:25.419Z,3.37
2018-07-19T09:52:52.876Z,3.33
2018-07-19T09:55:20.403Z,4.43
2018-07-19T09:57:47.889Z,4.20
2018-07-19T10:00:20.534Z,4.13
2018-07-19T10:02:48.225Z,3.93
2018-07-19T10:05:15.856Z,2.97
2018-07-19T10:07:43.586Z,2.60
2018-07-19T10:10:11.119Z,2.63
2018-07-19T10:12:38.740Z,2.67
2018-07-19T10:15:06.408Z,2.73
2018-07-19T10:17:33.917Z,2.73
2018-07-19T10:20:01.426Z,2.67
2018-07-19T10:22:29.552Z,2.50
2018-07-19T10:24:57.034Z,2.60
2018-07-19T10:27:24.575Z,2.90
2018-07-19T10:29:52.095Z,2.50
2018-07-19T10:32:19.845Z,4.47
2018-07-19T10:34:47.259Z,3.03
2018-07-19T10:37:14.881Z,2.87
2018-07-19T10:39:42.528Z,3.83
2018-07-19T10:42:11.218Z,2.70
2018-07-19T10:44:38.744Z,2.50
2018-07-19T10:47:06.276Z,3.67
2018-07-19T10:49:33.861Z,3.60
2018-07-19T10:52:01.303Z,3.30
2018-07-19T10:54:28.759Z,3.07
2018-07-19T10:56:56.422Z,2.77
2018-07-19T10:59:23.974Z,3.33
2018-07-19T11:01:51.510Z,2.60
2018-07-19T11:04:19.200Z,3.33
2018-07-19T11:06:46.842Z,3.87
2018-07-19T11:09:14.465Z,2.70
2018-07-19T11:11:42.153Z,3.10
2018-07-19T11:14:09.730Z,2.90
2018-07-19T11:16:38.370Z,2.93
2018-07-19T11:19:05.988Z,2.87
2018-07-19T11:21:33.607Z,4.87
2018-07-19T11:24:01.201Z,2.67
2018-07-19T11:26:28.602Z,2.63
2018-07-19T11:28:56.064Z,2.83
2018-07-19T11:31:23.554Z,2.83
2018-07-19T11:33:50.977Z,3.73
2018-07-19T11:36:18.621Z,2.63
2018-07-19T11:38:46.097Z,2.80
2018-07-19T11:41:13.708Z,2.77
2018-07-19T11:43:41.166Z,2.37
2018-07-19T11:46:08.604Z,3.97
2018-07-19T11:48:36.264Z,3.47
2018-07-19T11:51:03.824Z,2.07
2018-07-19T11:53:31.295Z,5.53
2018-07-19T11:55:58.795Z,2.50
2018-07-19T11:58:26.180Z,2.10
2018-07-19T12:00:53.765Z,4.17
2018-07-19T12:03:21.142Z,1.80
2018-07-19T12:05:48.531Z,3.57
2018-07-19T12:08:15.910Z,2.33
2018-07-19T12:10:43.271Z,2.00
2018-07-19T12:13:10.719Z,1.77
2018-07-19T12:15:38.082Z,4.57
2018-07-19T12:18:05.445Z,1.93
2018-07-19T12:20:33.053Z,3.27
2018-07-19T12:23:00.638Z,1.93
2018-07-19T12:25:31.970Z,3.20
2018-07-19T12:27:59.310Z,2.20
2018-07-19T12:30:31.537Z,2.80
2018-07-19T12:32:58.866Z,2.13
2018-07-19T12:35:26.234Z,2.10
2018-07-19T12:37:53.763Z,2.70
2018-07-19T12:40:21.395Z,1.70
2018-07-19T12:42:48.829Z,2.50
2018-07-19T12:45:16.178Z,3.40
2018-07-19T12:47:43.636Z,1.70
2018-07-19T12:50:11.232Z,1.50
2018-07-19T12:52:38.624Z,1.60
2018-07-19T12:55:06.048Z,2.67
2018-07-19T12:57:33.439Z,1.40
2018-07-19T13:00:00.828Z,2.03
2018-07-19T13:02:30.246Z,3.07
2018-07-19T13:04:57.570Z,1.37
2018-07-19T13:07:24.906Z,2.73
2018-07-19T13:09:52.387Z,2.03
2018-07-19T13:12:20.213Z,1.73
2018-07-19T13:14:49.757Z,1.50
2018-07-19T13:17:17.363Z,1.93
2018-07-19T13:19:45.268Z,1.40
2018-07-19T13:22:12.706Z,2.20
2018-07-19T13:24:40.128Z,1.37
2018-07-19T13:27:07.647Z,1.57
2018-07-19T13:29:35.074Z,2.83
2018-07-19T13:32:02.741Z,2.73
2018-07-19T13:34:30.869Z,2.33
2018-07-19T13:36:58.898Z,3.30
2018-07-19T13:39:26.616Z,1.97
2018-07-19T13:41:54.085Z,2.50
2018-07-19T13:44:21.875Z,2.50
2018-07-19T13:46:49.447Z,1.83
2018-07-19T13:49:17.369Z,3.23
2018-07-19T13:51:44.791Z,1.50
2018-07-19T13:54:20.876Z,2.80
2018-07-19T13:56:48.484Z,1.90
2018-07-19T13:59:16.712Z,4.10
2018-07-19T14:01:44.276Z,3.03
2018-07-19T14:04:12.154Z,3.27
2018-07-19T14:06:40.018Z,1.90
2018-07-19T14:09:11.205Z,2.93
2018-07-19T14:11:38.770Z,1.90
2018-07-19T14:14:07.031Z,2.90
2018-07-19T14:16:35.409Z,4.47
2018-07-19T14:19:02.999Z,2.67
2018-07-19T14:21:30.631Z,2.10
2018-07-19T14:23:58.359Z,2.67
2018-07-19T14:26:26.012Z,2.30
2018-07-19T14:28:53.879Z,2.97
2018-07-19T14:31:21.502Z,1.90
2018-07-19T14:33:49.104Z,3.70
2018-07-19T14:36:16.795Z,2.90
2018-07-19T14:38:44.465Z,3.70
2018-07-19T14:41:12.864Z,2.13
2018-07-19T14:43:40.618Z,2.33
2018-07-19T14:46:08.336Z,2.03
2018-07-19T14:48:36.246Z,4.50
2018-07-19T14:51:04.068Z,2.37
2018-07-19T14:53:31.877Z,4.57
2018-07-19T14:55:59.525Z,2.30
2018-07-19T14:58:27.156Z,3.43
2018-07-19T15:00:55.157Z,3.50
2018-07-19T15:03:22.917Z,2.40
2018-07-19T15:05:50.946Z,3.23
2018-07-19T15:08:18.559Z,2.43
2018-07-19T15:10:46.221Z,3.33
2018-07-19T15:13:13.850Z,2.40
2018-07-19T15:15:41.489Z,4.50
2018-07-19T15:18:09.266Z,4.00
2018-07-19T15:20:36.935Z,3.90
2018-07-19T15:23:04.991Z,3.27
2018-07-19T15:25:32.655Z,8.17
2018-07-19T15:28:00.271Z,9.73
2018-07-19T15:30:27.883Z,4.27
2018-07-19T15:32:55.465Z,3.27
2018-07-19T15:35:23.123Z,2.97
2018-07-19T15:37:50.758Z,2.77
2018-07-19T15:40:18.448Z,2.80
2018-07-19T15:42:46.067Z,3.63
2018-07-19T15:45:13.658Z,3.43
2018-07-19T15:47:41.358Z,2.57
2018-07-19T15:50:08.954Z,3.03
2018-07-19T15:52:37.288Z,2.43
2018-07-19T15:55:05.144Z,2.70
2018-07-19T15:57:33.737Z,3.37
2018-07-19T16:00:01.489Z,2.30
2018-07-19T16:02:29.195Z,3.20
2018-07-19T16:04:56.924Z,3.00
2018-07-19T16:07:24.614Z,3.23
2018-07-19T16:09:52.277Z,3.23
2018-07-19T16:12:19.797Z,3.83
2018-07-19T16:14:47.340Z,2.80
2018-07-19T16:17:14.931Z,3.43
2018-07-19T16:19:43.062Z,4.03
2018-07-19T16:22:10.505Z,3.40
2018-07-19T16:24:38.368Z,2.47
2018-07-19T16:27:05.879Z,2.30
2018-07-19T16:29:33.390Z,3.43
2018-07-19T16:32:00.938Z,4.23
2018-07-19T16:34:28.496Z,4.27
2018-07-19T16:36:56.378Z,4.23
2018-07-19T16:39:23.925Z,3.10
2018-07-19T16:41:51.422Z,2.87
2018-07-19T16:44:18.926Z,2.47
2018-07-19T16:46:46.474Z,4.93
2018-07-19T16:49:13.984Z,2.10
2018-07-19T16:51:41.609Z,2.67
2018-07-19T16:54:09.194Z,3.60
2018-07-19T16:56:36.878Z,2.33
2018-07-19T16:59:04.542Z,2.00
2018-07-19T17:01:32.176Z,2.57
2018-07-19T17:03:59.618Z,2.60
2018-07-19T17:06:26.894Z,4.37
2018-07-19T17:08:54.764Z,3.07
2018-07-19T17:11:22.128Z,2.53
2018-07-19T17:13:49.518Z,2.30
2018-07-19T17:16:16.990Z,3.13
2018-07-19T17:18:44.397Z,2.30
2018-07-19T17:21:11.807Z,4.17
2018-07-19T17:23:39.305Z,4.03
2018-07-19T17:26:06.613Z,2.13
2018-07-19T17:28:34.032Z,2.50
2018-07-19T17:31:01.335Z,4.77
2018-07-19T17:33:28.596Z,2.10
2018-07-19T17:35:55.917Z,2.70
2018-07-19T17:38:23.277Z,3.17
2018-07-19T17:40:50.681Z,5.10
2018-07-19T17:43:18.058Z,3.60
2018-07-19T17:45:45.404Z,3.63
2018-07-19T17:48:12.726Z,3.93
2018-07-19T17:53:14.049Z,2.73
2018-07-19T17:55:41.401Z,3.27
2018-07-19T17:58:08.797Z,3.90
2018-07-19T18:00:36.782Z,3.00
2018-07-19T18:03:04.058Z,5.07
2018-07-19T18:05:31.381Z,4.00
2018-07-19T18:07:58.724Z,2.50
2018-07-19T18:10:26.018Z,4.07
2018-07-19T18:12:53.514Z,3.77
2018-07-19T18:15:20.932Z,3.13
2018-07-19T18:17:48.244Z,3.17
2018-07-19T18:20:15.620Z,3.70
2018-07-19T18:22:42.992Z,4.07
2018-07-19T18:25:10.360Z,3.73
2018-07-19T18:27:37.719Z,3.80
2018-07-19T18:30:06.076Z,4.03
2018-07-19T18:32:33.436Z,2.93
2018-07-19T18:35:00.809Z,2.97
2018-07-19T18:37:28.797Z,3.37
2018-07-19T18:39:56.833Z,3.47
2018-07-19T18:42:24.215Z,3.87
2018-07-19T18:44:51.526Z,4.17
2018-07-19T18:47:18.839Z,6.10
2018-07-19T18:49:46.898Z,3.40
2018-07-19T18:52:15.120Z,3.93
2018-07-19T18:54:42.546Z,3.77
2018-07-19T18:57:09.842Z,5.90
2018-07-19T18:59:37.092Z,3.43
2018-07-19T19:02:04.389Z,7.60
2018-07-19T19:04:31.710Z,8.73
2018-07-19T19:06:59.048Z,3.40
2018-07-19T19:09:26.367Z,4.33
2018-07-19T19:11:53.763Z,4.80
2018-07-19T19:14:21.150Z,6.63
2018-07-19T19:16:48.471Z,7.27
2018-07-19T19:19:15.901Z,5.13
2018-07-19T19:21:43.426Z,5.67
2018-07-19T19:24:11.782Z,5.23
2018-07-19T19:26:39.084Z,6.10
2018-07-19T19:29:06.355Z,4.40
2018-07-19T19:31:33.691Z,3.53
2018-07-19T19:34:00.959Z,7.00
2018-07-19T19:36:28.409Z,5.07
2018-07-19T19:38:55.789Z,4.30
2018-07-19T19:41:23.171Z,5.57
2018-07-19T19:43:50.478Z,9.17
2018-07-19T19:46:17.804Z,4.60
2018-07-19T19:48:45.247Z,6.90
2018-07-19T19:51:13.302Z,4.80
2018-07-19T19:53:40.619Z,5.53
2018-07-19T19:56:08.092Z,6.33
2018-07-19T19:58:35.481Z,5.87
2018-07-19T20:01:02.792Z,6.03
2018-07-19T20:03:30.151Z,5.03
2018-07-19T20:05:57.894Z,7.67
2018-07-19T20:08:25.429Z,5.30
2018-07-19T20:10:52.809Z,6.97
2018-07-19T20:13:20.866Z,9.50
2018-07-19T20:15:48.257Z,6.40
2018-07-19T20:18:15.645Z,9.03
2018-07-19T20:20:43.028Z,4.70
2018-07-19T20:23:10.502Z,8.97
2018-07-19T20:25:37.863Z,5.90
2018-07-19T20:28:05.937Z,6.27
2018-07-19T20:30:33.310Z,5.00
2018-07-19T20:33:00.664Z,5.83
2018-07-19T20:35:28.184Z,7.77
2018-07-19T20:37:55.667Z,8.43
2018-07-19T20:40:23.035Z,7.27
2018-07-19T20:42:50.391Z,8.50
2018-07-19T20:45:17.905Z,5.90
2018-07-19T20:47:45.294Z,6.90
2018-07-19T20:50:12.590Z,8.13
2018-07-19T20:52:39.980Z,7.40
2018-07-19T20:55:07.743Z,7.57
2018-07-19T20:57:35.309Z,6.63
2018-07-19T21:00:02.827Z,7.30
2018-07-19T21:02:30.178Z,7.53
2018-07-19T21:04:57.624Z,9.17
2018-07-19T21:07:25.008Z,8.40
2018-07-19T21:09:52.409Z,7.53
2018-07-19T21:12:19.792Z,6.27
2018-07-19T21:14:47.119Z,6.53
2018-07-19T21:17:14.648Z,10.20
2018-07-19T21:19:42.050Z,8.93
2018-07-19T21:22:09.466Z,7.03
2018-07-19T21:24:36.797Z,9.30
2018-07-19T21:27:05.002Z,7.37
2018-07-19T21:29:33.481Z,9.40
2018-07-19T21:32:01.089Z,13.40
2018-07-19T21:34:28.745Z,8.23
2018-07-19T21:36:56.519Z,12.50
2018-07-19T21:39:24.564Z,11.53
2018-07-19T21:41:52.014Z,7.13
2018-07-19T21:44:21.644Z,7.00
2018-07-19T21:46:48.976Z,8.27
2018-07-19T21:49:17.496Z,7.87
2018-07-19T21:51:44.877Z,10.20
2018-07-19T21:54:13.515Z,9.00
2018-07-19T21:56:40.896Z,9.77
2018-07-19T21:59:08.221Z,9.17
2018-07-19T22:01:40.099Z,8.63
2018-07-19T22:04:07.385Z,10.47
2018-07-19T22:06:34.758Z,8.03
2018-07-19T22:09:03.099Z,9.47
2018-07-19T22:11:30.444Z,7.67
2018-07-19T22:13:57.768Z,9.80
2018-07-19T22:16:25.309Z,8.17
2018-07-19T22:18:53.206Z,10.47
2018-07-19T22:21:20.836Z,9.13
2018-07-19T22:23:48.277Z,6.93
2018-07-19T22:26:16.321Z,10.00
2018-07-19T22:28:43.641Z,8.40
2018-07-19T22:31:11.103Z,8.87
2018-07-19T22:33:38.344Z,13.30
2018-07-19T22:36:05.683Z,7.80
2018-07-19T22:38:33.021Z,7.40
2018-07-19T22:41:00.412Z,7.50
2018-07-19T22:43:27.722Z,7.10
2018-07-19T22:45:54.968Z,6.30
2018-07-19T22:48:22.303Z,9.10
2018-07-19T22:50:50.280Z,9.33
2018-07-19T22:53:17.575Z,7.80
2018-07-19T22:55:45.001Z,7.07
2018-07-19T22:58:12.320Z,8.70
2018-07-19T23:00:39.726Z,9.07
2018-07-19T23:03:07.077Z,7.93
2018-07-19T23:05:34.371Z,11.43
2018-07-19T23:08:01.659Z,10.30
2018-07-19T23:10:28.969Z,9.83
2018-07-19T23:12:56.262Z,9.27
2018-07-19T23:15:23.542Z,8.70
2018-07-19T23:17:51.055Z,9.50
2018-07-19T23:20:18.381Z,7.93
2018-07-19T23:22:56.509Z,13.33
2018-07-19T23:25:23.733Z,9.93
2018-07-19T23:27:51.244Z,9.40
2018-07-19T23:30:18.880Z,12.13
2018-07-19T23:32:46.243Z,8.60
2018-07-19T23:35:13.622Z,10.40
2018-07-19T23:37:42.149Z,12.17
2018-07-19T23:40:20.245Z,10.80
2018-07-19T23:42:53.770Z,11.80
2018-07-19T23:45:26.483Z,9.97
2018-07-19T23:47:54.733Z,10.33
2018-07-19T23:50:21.970Z,11.20
2018-07-19T23:52:49.323Z,9.80
2018-07-19T23:55:16.628Z,9.83
2018-07-19T23:57:43.991Z,11.33
